| time (UTC) | temp F | wind direction | speed knots | gust knots | rain 1hr in | rain 24hr in | rain mn in | humidity % | barometer mb |
| 20260506092028 | 48 | 130 | 5.2 | 7.8 | 0.00 | 0.00 | 0.00 | 99 | 1016.1 |
| 20260506091629 | 48 | 121 | 4.3 | 7.0 | 0.00 | 0.00 | 0.00 | 99 | 1016.1 |
| 20260506091528 | 48 | 123 | 4.3 | 7.0 | 0.00 | 0.00 | 0.00 | 99 | 1016.1 |
| 20260506091028 | 48 | 121 | 3.5 | 4.3 | 0.00 | 0.00 | 0.00 | 99 | 1016.2 |
| 20260506090729 | 48 | 120 | 3.5 | 4.3 | 0.00 | 0.00 | 0.00 | 99 | 1016.1 |
| 20260506090528 | 48 | 119 | 3.5 | 4.3 | 0.00 | 0.00 | 0.00 | 98 | 1016.1 |
| 20260506090028 | 48 | 196 | 2.6 | 3.5 | 0.00 | 0.00 | 0.00 | 98 | 1016.1 |
| 20260506085829 | 48 | 196 | 2.6 | 3.5 | 0.00 | 0.00 | 0.00 | 98 | 1016.2 |
| 20260506085528 | 49 | 196 | 1.7 | 3.5 | 0.00 | 0.00 | 0.00 | 98 | 1016.2 |
| 20260506085028 | 49 | 196 | 0.9 | 2.6 | 0.00 | 0.00 | 0.00 | 98 | 1016.2 |
| 20260506084929 | 49 | 196 | 0.9 | 1.7 | 0.00 | 0.00 | 0.00 | 98 | 1016.2 |
| 20260506084528 | 49 | 196 | 0.9 | 1.7 | 0.00 | 0.00 | 0.00 | 98 | 1016.2 |
| 20260506084028 | 49 | 196 | 0.9 | 1.7 | 0.00 | 0.00 | 0.00 | 98 | 1016.3 |
| 20260506083528 | 49 | 196 | 0.9 | 1.7 | 0.00 | 0.00 | 0.00 | 98 | 1016.3 |
| 20260506083129 | 49 | 196 | 1.7 | 1.7 | 0.00 | 0.00 | 0.00 | 98 | 1016.2 |
| 20260506083028 | 49 | 196 | 1.7 | 1.7 | 0.00 | 0.00 | 0.00 | 98 | 1016.2 |
| 20260506082528 | 49 | 196 | 0.9 | 2.6 | 0.00 | 0.00 | 0.00 | 98 | 1016.2 |
| 20260506082230 | 49 | 196 | 0.9 | 1.7 | 0.00 | 0.00 | 0.00 | 98 | 1016.2 |
| 20260506082028 | 49 | 196 | 0.9 | 1.7 | 0.00 | 0.00 | 0.00 | 98 | 1016.1 |
| 20260506081528 | 49 | 196 | 1.7 | 1.7 | 0.00 | 0.00 | 0.00 | 98 | 1016.2 |
| 20260506081329 | 49 | 196 | 1.7 | 1.7 | 0.00 | 0.00 | 0.00 | 98 | 1016.2 |
| 20260506081028 | 49 | 196 | 2.6 | 2.6 | 0.00 | 0.00 | 0.00 | 98 | 1016.2 |
| 20260506080528 | 48 | 196 | 2.6 | 2.6 | 0.00 | 0.00 | 0.00 | 98 | 1016.2 |
| 20260506080429 | 49 | 196 | 2.6 | 3.5 | 0.00 | 0.00 | 0.00 | 98 | 1016.1 |
| 20260506073528 | 49 | 196 | 0.0 | 0.9 | 0.00 | 0.00 | 0.00 | 96 | 1016.0 |
| 20260506073028 | 49 | 196 | 0.0 | 0.0 | 0.00 | 0.00 | 0.00 | 95 | 1016.0 |
| 20260506072829 | 49 | 196 | 0.0 | 0.0 | 0.00 | 0.00 | 0.00 | 95 | 1016.1 |
| 20260506072528 | 49 | 196 | 0.9 | 0.0 | 0.00 | 0.00 | 0.00 | 95 | 1016.1 |
| 20260506072028 | 49 | 196 | 1.7 | 1.7 | 0.00 | 0.00 | 0.00 | 96 | 1016.0 |
| 20260506071929 | 49 | 196 | 1.7 | 2.6 | 0.00 | 0.00 | 0.00 | 96 | 1016.1 |
| 20260506071528 | 49 | 196 | 1.7 | 2.6 | 0.00 | 0.00 | 0.00 | 96 | 1016.0 |
| 20260506071028 | 49 | 196 | 1.7 | 3.5 | 0.00 | 0.00 | 0.00 | 96 | 1016.1 |
| 20260506070528 | 49 | 196 | 1.7 | 2.6 | 0.00 | 0.00 | 0.00 | 96 | 1015.9 |
| 20260506070129 | 49 | 196 | 0.9 | 2.6 | 0.00 | 0.00 | 0.00 | 96 | 1015.8 |
| 20260506062028 | 50 | 192 | 0.0 | 0.9 | 0.00 | 0.00 | 0.00 | 94 | 1015.6 |
| 20260506061629 | 50 | 192 | 0.0 | 0.9 | 0.00 | 0.00 | 0.00 | 94 | 1015.6 |
| 20260506061528 | 50 | 192 | 0.9 | 0.9 | 0.00 | 0.00 | 0.00 | 95 | 1015.6 |
| 20260506061028 | 50 | 192 | 0.9 | 3.5 | 0.00 | 0.00 | 0.00 | 94 | 1015.6 |
| 20260506060729 | 50 | 192 | 1.7 | 2.6 | 0.00 | 0.00 | 0.00 | 94 | 1015.5 |
| 20260506060528 | 50 | 192 | 2.6 | 3.5 | 0.00 | 0.00 | 0.00 | 94 | 1015.5 |
| 20260506051330 | 51 | 245 | 3.5 | 7.0 | 0.00 | 0.00 | 0.00 | 93 | 1015.2 |
| 20260506051028 | 51 | 262 | 2.6 | 6.1 | 0.00 | 0.00 | 0.00 | 92 | 1015.2 |
| 20260506050528 | 51 | 161 | 0.9 | 4.3 | 0.00 | 0.00 | 0.00 | 93 | 1015.2 |
| 20260506050430 | 51 | 161 | 0.9 | 3.5 | 0.00 | 0.00 | 0.00 | 92 | 1015.2 |
| 20260506045028 | 51 | 161 | 0.0 | 1.7 | 0.00 | 0.00 | 0.00 | 92 | 1015.0 |
| 20260506044630 | 51 | 159 | 0.0 | 0.9 | 0.00 | 0.00 | 0.00 | 92 | 1014.9 |
| 20260506044529 | 51 | 159 | 0.0 | 0.0 | 0.00 | 0.00 | 0.00 | 92 | 1014.9 |
| 20260506044029 | 52 | 159 | 0.0 | 0.0 | 0.00 | 0.00 | 0.00 | 92 | 1014.8 |
| 20260506043730 | 52 | 159 | 0.9 | 0.9 | 0.00 | 0.00 | 0.00 | 92 | 1014.7 |
| 20260506043529 | 52 | 159 | 0.9 | 1.7 | 0.00 | 0.00 | 0.00 | 92 | 1014.7 |
| 20260506043029 | 52 | 159 | 0.9 | 1.7 | 0.00 | 0.00 | 0.00 | 92 | 1014.6 |
| 20260506042830 | 52 | 159 | 1.7 | 1.7 | 0.00 | 0.00 | 0.00 | 92 | 1014.6 |
| 20260506042529 | 52 | 159 | 1.7 | 1.7 | 0.00 | 0.00 | 0.00 | 92 | 1014.6 |
| 20260506042029 | 52 | 159 | 2.6 | 3.5 | 0.00 | 0.00 | 0.00 | 92 | 1014.7 |
| 20260506041930 | 52 | 159 | 2.6 | 3.5 | 0.00 | 0.00 | 0.00 | 91 | 1014.6 |
| 20260506041529 | 52 | 159 | 1.7 | 3.5 | 0.00 | 0.00 | 0.00 | 92 | 1014.6 |
| 20260506041029 | 52 | 159 | 1.7 | 3.5 | 0.00 | 0.00 | 0.00 | 92 | 1014.7 |
| 20260506040529 | 52 | 159 | 1.7 | 3.5 | 0.00 | 0.00 | 0.00 | 91 | 1014.6 |
| 20260506040130 | 52 | 159 | 1.7 | 3.5 | 0.00 | 0.00 | 0.00 | 91 | 1014.6 |
| 20260506040029 | 52 | 159 | 1.7 | 3.5 | 0.00 | 0.00 | 0.00 | 91 | 1014.5 |
| 20260506035529 | 52 | 159 | 3.5 | 5.2 | 0.00 | 0.00 | 0.00 | 91 | 1014.6 |
| 20260506035029 | 52 | 152 | 6.1 | 7.8 | 0.00 | 0.00 | 0.00 | 90 | 1014.5 |
| 20260506034529 | 51 | 191 | 7.0 | 8.7 | 0.00 | 0.00 | 0.00 | 91 | 1014.3 |
| 20260506034330 | 51 | 198 | 7.0 | 8.7 | 0.00 | 0.00 | 0.00 | 91 | 1014.3 |
| 20260506034029 | 51 | 196 | 7.8 | 8.7 | 0.00 | 0.00 | 0.00 | 91 | 1014.3 |
| 20260506033529 | 52 | 194 | 8.7 | 10.4 | 0.00 | 0.00 | 0.00 | 90 | 1014.2 |
| 20260506033430 | 52 | 198 | 8.7 | 10.4 | 0.00 | 0.00 | 0.00 | 91 | 1014.2 |
| 20260506033029 | 51 | 188 | 9.6 | 11.3 | 0.00 | 0.00 | 0.00 | 91 | 1014.2 |
| 20260506032529 | 51 | 195 | 9.6 | 11.3 | 0.00 | 0.00 | 0.00 | 91 | 1014.0 |
| 20260506032029 | 51 | 204 | 9.6 | 11.3 | 0.00 | 0.00 | 0.00 | 91 | 1014.0 |
| 20260506031630 | 51 | 200 | 9.6 | 11.3 | 0.00 | 0.00 | 0.00 | 91 | 1014.0 |
| 20260506031529 | 51 | 197 | 9.6 | 11.3 | 0.00 | 0.00 | 0.00 | 91 | 1014.0 |
| 20260506031029 | 52 | 198 | 9.6 | 11.3 | 0.00 | 0.00 | 0.00 | 90 | 1013.9 |
| 20260506030730 | 52 | 204 | 8.7 | 11.3 | 0.00 | 0.00 | 0.00 | 90 | 1013.9 |
| 20260506030529 | 52 | 190 | 8.7 | 10.4 | 0.00 | 0.00 | 0.00 | 90 | 1013.9 |
| 20260506030029 | 52 | 199 | 9.6 | 11.3 | 0.00 | 0.00 | 0.00 | 89 | 1013.8 |
| 20260506025830 | 52 | 200 | 9.6 | 12.2 | 0.00 | 0.00 | 0.00 | 89 | 1013.9 |
| 20260506025529 | 52 | 198 | 10.4 | 12.2 | 0.00 | 0.00 | 0.00 | 89 | 1013.9 |
| 20260506025029 | 52 | 200 | 10.4 | 13.0 | 0.00 | 0.00 | 0.00 | 89 | 1013.9 |
| 20260506024930 | 53 | 206 | 10.4 | 13.0 | 0.00 | 0.00 | 0.00 | 89 | 1013.9 |
| 20260506024529 | 53 | 207 | 10.4 | 12.2 | 0.00 | 0.00 | 0.00 | 88 | 1013.8 |
| 20260506024029 | 53 | 204 | 10.4 | 13.0 | 0.00 | 0.00 | 0.00 | 89 | 1013.8 |
| 20260506023529 | 53 | 208 | 10.4 | 13.0 | 0.00 | 0.00 | 0.00 | 88 | 1013.7 |
| 20260506023130 | 53 | 206 | 10.4 | 13.0 | 0.00 | 0.00 | 0.00 | 88 | 1013.7 |
| 20260506023029 | 53 | 195 | 10.4 | 13.0 | 0.00 | 0.00 | 0.00 | 88 | 1013.7 |
| 20260506022529 | 53 | 200 | 10.4 | 13.9 | 0.00 | 0.00 | 0.00 | 87 | 1013.6 |
| 20260506022231 | 54 | 202 | 10.4 | 14.8 | 0.00 | 0.00 | 0.00 | 87 | 1013.6 |
| 20260506022029 | 53 | 217 | 11.3 | 14.8 | 0.00 | 0.00 | 0.00 | 87 | 1013.6 |
| 20260506021529 | 54 | 194 | 10.4 | 13.9 | 0.00 | 0.00 | 0.00 | 87 | 1013.7 |
| 20260506021331 | 54 | 207 | 10.4 | 13.9 | 0.00 | 0.00 | 0.00 | 87 | 1013.6 |
| 20260506021029 | 54 | 207 | 10.4 | 13.9 | 0.00 | 0.00 | 0.00 | 87 | 1013.7 |
| 20260506020529 | 54 | 219 | 10.4 | 12.2 | 0.00 | 0.00 | 0.00 | 86 | 1013.7 |
| 20260506020430 | 54 | 205 | 10.4 | 13.0 | 0.00 | 0.00 | 0.00 | 86 | 1013.6 |
| 20260506020029 | 54 | 204 | 10.4 | 13.9 | 0.00 | 0.00 | 0.00 | 86 | 1013.6 |
| 20260506015529 | 54 | 211 | 11.3 | 14.8 | 0.00 | 0.00 | 0.00 | 86 | 1013.5 |
| 20260506015029 | 54 | 207 | 12.2 | 14.8 | 0.00 | 0.00 | 0.00 | 86 | 1013.6 |
| 20260506014630 | 54 | 200 | 12.2 | 15.6 | 0.00 | 0.00 | 0.00 | 86 | 1013.5 |
| 20260506014529 | 54 | 205 | 12.2 | 15.6 | 0.00 | 0.00 | 0.00 | 86 | 1013.4 |
| 20260506014029 | 54 | 196 | 12.2 | 16.5 | 0.00 | 0.00 | 0.00 | 86 | 1013.4 |
| 20260506013730 | 54 | 211 | 12.2 | 15.6 | 0.00 | 0.00 | 0.00 | 86 | 1013.4 |
| 20260506013529 | 54 | 213 | 12.2 | 15.6 | 0.00 | 0.00 | 0.00 | 87 | 1013.4 |
| 20260506013029 | 54 | 203 | 13.0 | 15.6 | 0.00 | 0.00 | 0.00 | 86 | 1013.4 |
| 20260506012830 | 55 | 229 | 13.0 | 16.5 | 0.00 | 0.00 | 0.00 | 86 | 1013.4 |
| 20260506012529 | 55 | 209 | 13.0 | 16.5 | 0.00 | 0.00 | 0.00 | 86 | 1013.3 |
| 20260506012029 | 55 | 207 | 12.2 | 18.2 | 0.00 | 0.00 | 0.00 | 86 | 1013.3 |
| 20260506011930 | 55 | 213 | 12.2 | 15.6 | 0.00 | 0.00 | 0.00 | 86 | 1013.4 |
| 20260506011529 | 55 | 214 | 11.3 | 14.8 | 0.00 | 0.00 | 0.00 | 86 | 1013.5 |
| 20260506011029 | 55 | 207 | 11.3 | 16.5 | 0.00 | 0.00 | 0.00 | 86 | 1013.4 |
| 20260506010529 | 55 | 203 | 11.3 | 15.6 | 0.00 | 0.00 | 0.00 | 86 | 1013.4 |
| 20260506010130 | 55 | 213 | 10.4 | 15.6 | 0.00 | 0.00 | 0.00 | 85 | 1013.4 |
| 20260506010029 | 55 | 223 | 10.4 | 15.6 | 0.00 | 0.00 | 0.00 | 85 | 1013.3 |
| 20260506005529 | 55 | 216 | 11.3 | 15.6 | 0.00 | 0.00 | 0.00 | 86 | 1013.4 |
| 20260506005029 | 55 | 222 | 11.3 | 14.8 | 0.00 | 0.00 | 0.00 | 86 | 1013.3 |
| 20260506004529 | 55 | 231 | 11.3 | 17.4 | 0.00 | 0.00 | 0.00 | 86 | 1013.2 |
| 20260506004330 | 55 | 225 | 11.3 | 17.4 | 0.00 | 0.00 | 0.00 | 86 | 1013.2 |
| 20260506004029 | 55 | 239 | 12.2 | 15.6 | 0.00 | 0.00 | 0.00 | 85 | 1013.2 |
| 20260506003529 | 55 | 209 | 11.3 | 14.8 | 0.00 | 0.00 | 0.00 | 85 | 1013.2 |
| 20260506003430 | 55 | 213 | 11.3 | 14.8 | 0.00 | 0.00 | 0.00 | 85 | 1013.2 |
| 20260506003029 | 55 | 205 | 11.3 | 15.6 | 0.00 | 0.00 | 0.00 | 86 | 1013.0 |
| 20260506002529 | 55 | 208 | 11.3 | 15.6 | 0.00 | 0.00 | 0.00 | 85 | 1013.2 |
| 20260506002029 | 55 | 223 | 11.3 | 15.6 | 0.00 | 0.00 | 0.00 | 85 | 1013.1 |
| 20260506001630 | 56 | 218 | 11.3 | 15.6 | 0.00 | 0.00 | 0.00 | 84 | 1013.1 |
| 20260506001533 | 56 | 211 | 11.3 | 15.6 | 0.00 | 0.00 | 0.00 | 85 | 1013.2 |
| 20260506001029 | 56 | 207 | 13.0 | 16.5 | 0.00 | 0.00 | 0.00 | 84 | 1013.1 |
| 20260506000730 | 55 | 228 | 13.0 | 17.4 | 0.00 | 0.00 | 0.00 | 85 | 1013.1 |
| 20260506000529 | 55 | 194 | 13.0 | 17.4 | 0.00 | 0.00 | 0.00 | 85 | 1013.0 |
| 20260506000029 | 55 | 202 | 13.0 | 17.4 | 0.00 | 0.00 | 0.00 | 84 | 1013.0 |
| 20260505235830 | 56 | 203 | 13.0 | 17.4 | 0.00 | 0.00 | 0.00 | 84 | 1012.9 |
| 20260505235529 | 56 | 217 | 12.2 | 16.5 | 0.00 | 0.00 | 0.00 | 85 | 1012.8 |
| 20260505235029 | 56 | 218 | 12.2 | 18.2 | 0.00 | 0.00 | 0.00 | 84 | 1013.0 |
| 20260505234931 | 56 | 209 | 11.3 | 18.2 | 0.00 | 0.00 | 0.00 | 84 | 1013.0 |
| 20260505234529 | 56 | 200 | 11.3 | 16.5 | 0.00 | 0.00 | 0.00 | 84 | 1013.0 |
| 20260505234029 | 56 | 199 | 11.3 | 15.6 | 0.00 | 0.00 | 0.00 | 83 | 1013.1 |
| 20260505233529 | 56 | 211 | 12.2 | 15.6 | 0.00 | 0.00 | 0.00 | 84 | 1013.1 |
| 20260505233130 | 56 | 213 | 12.2 | 17.4 | 0.00 | 0.00 | 0.00 | 83 | 1013.1 |
| 20260505233029 | 56 | 207 | 12.2 | 17.4 | 0.00 | 0.00 | 0.00 | 84 | 1013.1 |
| 20260505232529 | 56 | 224 | 11.3 | 15.6 | 0.00 | 0.00 | 0.00 | 83 | 1013.1 |
| 20260505232230 | 56 | 204 | 11.3 | 15.6 | 0.00 | 0.00 | 0.00 | 83 | 1013.1 |
| 20260505232029 | 56 | 209 | 11.3 | 15.6 | 0.00 | 0.00 | 0.00 | 84 | 1013.1 |
| 20260505231529 | 56 | 213 | 11.3 | 16.5 | 0.00 | 0.00 | 0.00 | 83 | 1013.3 |
| 20260505231330 | 56 | 207 | 11.3 | 17.4 | 0.00 | 0.00 | 0.00 | 84 | 1013.2 |
| 20260505231029 | 56 | 212 | 10.4 | 17.4 | 0.00 | 0.00 | 0.00 | 84 | 1013.2 |
| 20260505230529 | 56 | 209 | 11.3 | 15.6 | 0.00 | 0.00 | 0.00 | 85 | 1013.2 |
| 20260505230430 | 56 | 215 | 11.3 | 17.4 | 0.00 | 0.00 | 0.00 | 84 | 1013.2 |
| 20260505230029 | 56 | 203 | 11.3 | 17.4 | 0.00 | 0.00 | 0.00 | 84 | 1013.2 |
| 20260505225529 | 56 | 228 | 11.3 | 15.6 | 0.00 | 0.00 | 0.00 | 85 | 1013.2 |
| 20260505225029 | 56 | 214 | 12.2 | 16.5 | 0.00 | 0.00 | 0.00 | 85 | 1013.2 |
| 20260505224630 | 56 | 214 | 12.2 | 15.6 | 0.00 | 0.00 | 0.00 | 84 | 1013.2 |
| 20260505224529 | 56 | 208 | 13.0 | 15.6 | 0.00 | 0.00 | 0.00 | 83 | 1013.2 |
| 20260505224029 | 56 | 238 | 13.0 | 17.4 | 0.00 | 0.00 | 0.00 | 80 | 1013.2 |
| 20260505223730 | 56 | 211 | 13.0 | 17.4 | 0.00 | 0.00 | 0.00 | 84 | 1013.1 |
| 20260505223529 | 55 | 213 | 13.0 | 17.4 | 0.00 | 0.00 | 0.00 | 84 | 1013.1 |
| 20260505223029 | 56 | 216 | 13.0 | 18.2 | 0.00 | 0.00 | 0.00 | 84 | 1013.1 |
| 20260505222830 | 56 | 207 | 13.0 | 18.2 | 0.00 | 0.00 | 0.00 | 83 | 1013.1 |
| 20260505222529 | 56 | 213 | 12.2 | 15.6 | 0.00 | 0.00 | 0.00 | 83 | 1013.2 |
| 20260505222029 | 56 | 204 | 12.2 | 20.9 | 0.00 | 0.00 | 0.00 | 81 | 1013.2 |
| 20260505221930 | 56 | 208 | 12.2 | 20.9 | 0.00 | 0.00 | 0.00 | 80 | 1013.1 |
| 20260505221529 | 56 | 219 | 12.2 | 16.5 | 0.00 | 0.00 | 0.00 | 82 | 1013.2 |
| 20260505221029 | 56 | 220 | 12.2 | 17.4 | 0.00 | 0.00 | 0.00 | 81 | 1013.1 |
| 20260505220529 | 56 | 207 | 10.4 | 14.8 | 0.00 | 0.00 | 0.00 | 81 | 1013.2 |
| 20260505220130 | 56 | 204 | 9.6 | 13.9 | 0.00 | 0.00 | 0.00 | 82 | 1013.2 |
| 20260505220029 | 56 | 214 | 10.4 | 13.9 | 0.00 | 0.00 | 0.00 | 81 | 1013.2 |
| 20260505215529 | 56 | 209 | 10.4 | 13.9 | 0.00 | 0.00 | 0.00 | 82 | 1013.3 |
| 20260505215231 | 56 | 225 | 10.4 | 15.6 | 0.00 | 0.00 | 0.00 | 80 | 1013.4 |
| 20260505215029 | 56 | 202 | 9.6 | 15.6 | 0.00 | 0.00 | 0.00 | 82 | 1013.2 |
| 20260505214529 | 56 | 209 | 9.6 | 13.9 | 0.00 | 0.00 | 0.00 | 82 | 1013.2 |
| 20260505214330 | 56 | 215 | 9.6 | 12.2 | 0.00 | 0.00 | 0.00 | 83 | 1013.2 |
| 20260505214029 | 56 | 219 | 10.4 | 13.9 | 0.00 | 0.00 | 0.00 | 83 | 1013.1 |
| 20260505213529 | 55 | 209 | 9.6 | 13.9 | 0.00 | 0.00 | 0.00 | 84 | 1013.3 |
| 20260505213430 | 55 | 209 | 9.6 | 13.9 | 0.00 | 0.00 | 0.00 | 84 | 1013.2 |
| 20260505213029 | 55 | 215 | 8.7 | 13.0 | 0.00 | 0.00 | 0.00 | 84 | 1013.3 |
| 20260505212529 | 56 | 215 | 8.7 | 12.2 | 0.00 | 0.00 | 0.00 | 83 | 1013.3 |
| 20260505212029 | 55 | 195 | 8.7 | 12.2 | 0.00 | 0.00 | 0.00 | 84 | 1013.3 |
| 20260505211630 | 55 | 218 | 9.6 | 12.2 | 0.00 | 0.00 | 0.00 | 85 | 1013.3 |
| 20260505211529 | 55 | 228 | 9.6 | 12.2 | 0.00 | 0.00 | 0.00 | 84 | 1013.3 |
| 20260505211029 | 55 | 188 | 9.6 | 13.0 | 0.00 | 0.00 | 0.00 | 84 | 1013.3 |
| 20260505210730 | 55 | 209 | 9.6 | 12.2 | 0.00 | 0.00 | 0.00 | 87 | 1013.4 |
| 20260505210529 | 54 | 210 | 9.6 | 13.9 | 0.00 | 0.00 | 0.00 | 86 | 1013.3 |
| 20260505210029 | 54 | 215 | 9.6 | 13.9 | 0.00 | 0.00 | 0.00 | 86 | 1013.3 |
| 20260505205830 | 54 | 209 | 10.4 | 14.8 | 0.00 | 0.00 | 0.00 | 85 | 1013.3 |
| 20260505205529 | 54 | 203 | 10.4 | 14.8 | 0.00 | 0.00 | 0.00 | 87 | 1013.3 |
| 20260505205029 | 54 | 207 | 10.4 | 13.9 | 0.00 | 0.00 | 0.00 | 86 | 1013.2 |
| 20260505204930 | 54 | 211 | 9.6 | 13.9 | 0.00 | 0.00 | 0.00 | 86 | 1013.3 |
| 20260505204529 | 54 | 198 | 8.7 | 13.0 | 0.00 | 0.00 | 0.00 | 88 | 1013.3 |
| 20260505204029 | 54 | 204 | 8.7 | 11.3 | 0.00 | 0.00 | 0.00 | 88 | 1013.3 |
| 20260505203529 | 54 | 209 | 7.8 | 12.2 | 0.00 | 0.00 | 0.00 | 88 | 1013.3 |
| 20260505203130 | 53 | 204 | 8.7 | 12.2 | 0.00 | 0.00 | 0.00 | 88 | 1013.2 |
| 20260505203029 | 53 | 207 | 8.7 | 12.2 | 0.00 | 0.00 | 0.00 | 88 | 1013.3 |
| 20260505202529 | 53 | 192 | 9.6 | 13.0 | 0.00 | 0.00 | 0.00 | 89 | 1013.2 |
| 20260505202230 | 53 | 198 | 9.6 | 13.0 | 0.00 | 0.00 | 0.00 | 88 | 1013.1 |
| 20260505202029 | 53 | 212 | 8.7 | 12.2 | 0.00 | 0.00 | 0.00 | 88 | 1013.2 |
| 20260505201529 | 53 | 200 | 8.7 | 11.3 | 0.00 | 0.00 | 0.00 | 87 | 1013.3 |
| 20260505201331 | 53 | 225 | 8.7 | 13.9 | 0.00 | 0.00 | 0.00 | 89 | 1013.2 |
| 20260505201029 | 53 | 219 | 7.8 | 13.9 | 0.00 | 0.00 | 0.00 | 88 | 1013.2 |
| 20260505200529 | 53 | 205 | 7.0 | 11.3 | 0.00 | 0.00 | 0.00 | 88 | 1013.2 |
| 20260505200430 | 53 | 216 | 6.1 | 11.3 | 0.00 | 0.00 | 0.00 | 90 | 1013.2 |
| 20260505200029 | 53 | 229 | 7.0 | 8.7 | 0.00 | 0.00 | 0.00 | 88 | 1013.2 |
| 20260505195529 | 53 | 207 | 5.2 | 12.2 | 0.00 | 0.00 | 0.00 | 89 | 1013.2 |
| 20260505195029 | 53 | 239 | 5.2 | 7.8 | 0.00 | 0.00 | 0.00 | 90 | 1013.2 |
| 20260505194630 | 52 | 232 | 6.1 | 8.7 | 0.00 | 0.00 | 0.00 | 90 | 1013.2 |
| 20260505194529 | 52 | 229 | 7.0 | 9.6 | 0.00 | 0.00 | 0.00 | 90 | 1013.2 |
| 20260505194029 | 52 | 232 | 6.1 | 8.7 | 0.00 | 0.00 | 0.00 | 88 | 1013.2 |
| 20260505193730 | 52 | 233 | 5.2 | 8.7 | 0.00 | 0.00 | 0.00 | 88 | 1013.2 |
| 20260505193529 | 52 | 221 | 5.2 | 8.7 | 0.00 | 0.00 | 0.00 | 88 | 1013.1 |
| 20260505193029 | 52 | 259 | 6.1 | 7.8 | 0.00 | 0.00 | 0.00 | 89 | 1013.2 |
| 20260505192830 | 52 | 228 | 6.1 | 7.8 | 0.00 | 0.00 | 0.00 | 90 | 1013.2 |
| 20260505192529 | 52 | 260 | 6.1 | 9.6 | 0.00 | 0.00 | 0.00 | 90 | 1013.2 |
| 20260505192029 | 51 | 229 | 6.1 | 10.4 | 0.00 | 0.00 | 0.00 | 91 | 1013.1 |
| 20260505191930 | 51 | 246 | 6.1 | 10.4 | 0.00 | 0.00 | 0.00 | 91 | 1013.1 |
| 20260505191529 | 51 | 213 | 5.2 | 8.7 | 0.00 | 0.00 | 0.00 | 92 | 1013.0 |
| 20260505191029 | 51 | 238 | 6.1 | 8.7 | 0.00 | 0.00 | 0.00 | 91 | 1013.0 |
| 20260505190529 | 51 | 262 | 5.2 | 8.7 | 0.00 | 0.00 | 0.00 | 91 | 1013.0 |
| 20260505190130 | 52 | 240 | 5.2 | 8.7 | 0.00 | 0.00 | 0.00 | 89 | 1013.1 |
| 20260505190029 | 52 | 250 | 4.3 | 7.8 | 0.00 | 0.00 | 0.00 | 88 | 1013.0 |
| 20260505185529 | 53 | 265 | 4.3 | 7.0 | 0.00 | 0.00 | 0.00 | 87 | 1013.0 |
| 20260505185231 | 53 | 263 | 4.3 | 7.0 | 0.00 | 0.00 | 0.00 | 88 | 1013.0 |
| 20260505185029 | 52 | 299 | 4.3 | 7.8 | 0.00 | 0.00 | 0.00 | 88 | 1013.0 |
| 20260505184529 | 52 | 283 | 3.5 | 7.8 | 0.00 | 0.00 | 0.00 | 88 | 1013.0 |
| 20260505184330 | 52 | 276 | 3.5 | 6.1 | 0.00 | 0.00 | 0.00 | 87 | 1012.9 |
| 20260505184029 | 52 | 289 | 2.6 | 6.1 | 0.00 | 0.00 | 0.00 | 87 | 1013.1 |
| 20260505183529 | 52 | 311 | 2.6 | 4.3 | 0.00 | 0.00 | 0.00 | 85 | 1013.0 |
| 20260505183430 | 52 | 310 | 2.6 | 4.3 | 0.00 | 0.00 | 0.00 | 86 | 1013.0 |
| 20260505183029 | 52 | 305 | 1.7 | 4.3 | 0.00 | 0.00 | 0.00 | 85 | 1013.1 |
| 20260505182529 | 53 | 312 | 1.7 | 3.5 | 0.00 | 0.00 | 0.00 | 85 | 1013.0 |
| 20260505182029 | 54 | 319 | 1.7 | 3.5 | 0.00 | 0.00 | 0.00 | 85 | 1013.0 |
| 20260505181630 | 54 | 321 | 1.7 | 3.5 | 0.00 | 0.00 | 0.00 | 86 | 1013.0 |
| 20260505181529 | 54 | 5 | 1.7 | 3.5 | 0.00 | 0.00 | 0.00 | 86 | 1012.9 |
| 20260505181029 | 54 | 46 | 1.7 | 5.2 | 0.00 | 0.00 | 0.00 | 89 | 1012.8 |
| 20260505180730 | 54 | 144 | 1.7 | 5.2 | 0.00 | 0.00 | 0.00 | 89 | 1012.7 |
| 20260505180529 | 54 | 163 | 1.7 | 3.5 | 0.00 | 0.00 | 0.00 | 90 | 1012.7 |
| 20260505180029 | 54 | 311 | 1.7 | 4.3 | 0.00 | 0.00 | 0.00 | 92 | 1012.7 |
| 20260505175830 | 53 | 17 | 1.7 | 4.3 | 0.00 | 0.00 | 0.00 | 93 | 1012.8 |
| 20260505175529 | 53 | 130 | 1.7 | 3.5 | 0.00 | 0.00 | 0.00 | 90 | 1012.8 |
| 20260505175029 | 53 | 74 | 2.6 | 4.3 | 0.00 | 0.00 | 0.00 | 91 | 1012.8 |
| 20260505174930 | 53 | 48 | 2.6 | 4.3 | 0.00 | 0.00 | 0.00 | 92 | 1012.7 |
| 20260505174529 | 53 | 135 | 2.6 | 4.3 | 0.00 | 0.00 | 0.00 | 93 | 1012.7 |
| 20260505174029 | 53 | 73 | 2.6 | 5.2 | 0.00 | 0.00 | 0.00 | 91 | 1012.7 |
| 20260505173529 | 52 | 65 | 1.7 | 4.3 | 0.00 | 0.00 | 0.00 | 97 | 1012.7 |
| 20260505173131 | 51 | 71 | 1.7 | 3.5 | 0.00 | 0.00 | 0.00 | 98 | 1012.7 |
| 20260505173029 | 51 | 43 | 1.7 | 3.5 | 0.00 | 0.00 | 0.00 | 98 | 1012.7 |
| 20260505172529 | 50 | 25 | 1.7 | 3.5 | 0.00 | 0.00 | 0.00 | 97 | 1012.6 |
| 20260505172231 | 50 | 297 | 1.7 | 4.3 | 0.00 | 0.00 | 0.00 | 98 | 1012.7 |
| 20260505172029 | 50 | 223 | 1.7 | 4.3 | 0.00 | 0.00 | 0.00 | 99 | 1012.7 |
| 20260505171529 | 50 | 0 | 0.9 | 3.5 | 0.00 | 0.00 | 0.00 | 99 | 1012.7 |
| 20260505171331 | 50 | 315 | 1.7 | 3.5 | 0.00 | 0.00 | 0.00 | 99 | 1012.7 |
| 20260505171029 | 50 | 321 | 0.9 | 2.6 | 0.00 | 0.00 | 0.00 | 99 | 1012.7 |
| 20260505170530 | 50 | 42 | 1.7 | 2.6 | 0.00 | 0.00 | 0.00 | 100 | 1012.7 |
| 20260505170431 | 49 | 39 | 1.7 | 2.6 | 0.00 | 0.00 | 0.00 | 100 | 1012.7 |
| 20260505170029 | 49 | 39 | 1.7 | 4.3 | 0.00 | 0.00 | 0.00 | 100 | 1012.6 |
| 20260505165530 | 49 | 55 | 1.7 | 4.3 | 0.00 | 0.00 | 0.00 | 100 | 1012.6 |
| 20260505165029 | 49 | 5 | 0.9 | 3.5 | 0.00 | 0.00 | 0.00 | 100 | 1012.6 |
| 20260505164630 | 48 | 11 | 0.9 | 3.5 | 0.00 | 0.00 | 0.00 | 100 | 1012.6 |
| 20260505164530 | 48 | 11 | 0.9 | 3.5 | 0.00 | 0.00 | 0.00 | 100 | 1012.6 |
| 20260505164030 | 47 | 345 | 0.9 | 1.7 | 0.00 | 0.00 | 0.00 | 100 | 1012.6 |
| 20260505163731 | 47 | 345 | 0.9 | 1.7 | 0.00 | 0.00 | 0.00 | 100 | 1012.5 |
| 20260505163529 | 47 | 345 | 0.9 | 2.6 | 0.00 | 0.00 | 0.00 | 100 | 1012.5 |
| 20260505163030 | 47 | 202 | 0.9 | 2.6 | 0.00 | 0.00 | 0.00 | 100 | 1012.6 |
| 20260505162831 | 47 | 197 | 0.9 | 2.6 | 0.00 | 0.00 | 0.00 | 100 | 1012.4 |
| 20260505162530 | 47 | 199 | 1.7 | 2.6 | 0.00 | 0.00 | 0.00 | 100 | 1012.5 |
| 20260505162030 | 46 | 317 | 2.6 | 3.5 | 0.00 | 0.00 | 0.00 | 100 | 1012.5 |
| 20260505161931 | 46 | 355 | 2.6 | 3.5 | 0.00 | 0.00 | 0.00 | 100 | 1012.5 |
| 20260505161530 | 46 | 276 | 1.7 | 6.1 | 0.00 | 0.00 | 0.00 | 100 | 1012.4 |
| 20260505161030 | 46 | 284 | 1.7 | 3.5 | 0.00 | 0.00 | 0.00 | 100 | 1012.4 |
| 20260505160530 | 47 | 336 | 0.9 | 2.6 | 0.00 | 0.00 | 0.00 | 100 | 1012.4 |
| 20260505160131 | 47 | 306 | 0.9 | 1.7 | 0.00 | 0.00 | 0.00 | 100 | 1012.4 |
| 20260505153030 | 46 | 322 | 0.9 | 1.7 | 0.00 | 0.00 | 0.00 | 100 | 1012.5 |
| 20260505152530 | 46 | 322 | 0.9 | 1.7 | 0.00 | 0.00 | 0.00 | 100 | 1012.4 |
| 20260505152030 | 47 | 322 | 0.9 | 2.6 | 0.00 | 0.00 | 0.00 | 100 | 1012.4 |
| 20260505151631 | 47 | 63 | 0.0 | 1.7 | 0.00 | 0.00 | 0.00 | 100 | 1012.4 |
| 20260505151530 | 47 | 63 | 0.0 | 1.7 | 0.00 | 0.00 | 0.00 | 100 | 1012.3 |
| 20260505151030 | 47 | 63 | 0.0 | 0.9 | 0.00 | 0.00 | 0.00 | 100 | 1012.3 |
| 20260505150731 | 47 | 63 | 0.0 | 0.9 | 0.00 | 0.00 | 0.00 | 100 | 1012.3 |
| 20260505150530 | 47 | 63 | 0.0 | 0.9 | 0.00 | 0.00 | 0.00 | 100 | 1012.3 |
| 20260505140530 | 45 | 63 | 1.7 | 2.6 | 0.00 | 0.00 | 0.00 | 100 | 1011.8 |
| 20260505140431 | 45 | 63 | 1.7 | 2.6 | 0.00 | 0.00 | 0.00 | 100 | 1011.8 |
| 20260505130131 | 46 | 63 | 1.7 | 2.6 | 0.00 | 0.00 | 0.00 | 100 | 1011.3 |
| 20260505125030 | 46 | 26 | 1.7 | 2.6 | 0.00 | 0.00 | 0.00 | 100 | 1011.2 |
| 20260505124530 | 46 | 26 | 0.9 | 3.5 | 0.00 | 0.00 | 0.00 | 100 | 1011.2 |
| 20260505124331 | 46 | 26 | 0.9 | 3.5 | 0.00 | 0.00 | 0.00 | 100 | 1011.2 |
| 20260505124030 | 46 | 26 | 0.0 | 1.7 | 0.00 | 0.00 | 0.00 | 100 | 1011.1 |
| 20260505123530 | 46 | 26 | 0.9 | 1.7 | 0.00 | 0.00 | 0.00 | 100 | 1011.2 |
| 20260505123431 | 46 | 26 | 0.9 | 1.7 | 0.00 | 0.00 | 0.00 | 100 | 1011.1 |
| 20260505123030 | 46 | 26 | 0.9 | 1.7 | 0.00 | 0.00 | 0.00 | 100 | 1011.1 |
| 20260505122530 | 46 | 26 | 0.0 | 0.9 | 0.00 | 0.00 | 0.00 | 100 | 1011.1 |
| 20260505122030 | 46 | 26 | 0.9 | 1.7 | 0.00 | 0.00 | 0.00 | 100 | 1011.1 |
| 20260505121631 | 46 | 26 | 0.0 | 1.7 | 0.00 | 0.00 | 0.00 | 100 | 1011.1 |
| 20260505121530 | 46 | 26 | 0.0 | 1.7 | 0.00 | 0.00 | 0.00 | 100 | 1011.1 |
| 20260505121030 | 46 | 26 | 0.0 | 1.7 | 0.00 | 0.00 | 0.00 | 100 | 1011.0 |
| 20260505120731 | 46 | 26 | 0.0 | 0.9 | 0.00 | 0.00 | 0.00 | 100 | 1011.0 |
| 20260505120530 | 46 | 26 | 0.0 | 0.9 | 0.00 | 0.00 | 0.00 | 100 | 1011.1 |
| 20260505120030 | 46 | 26 | 0.9 | 1.7 | 0.00 | 0.00 | 0.00 | 100 | 1011.0 |
| 20260505115831 | 46 | 26 | 0.9 | 1.7 | 0.00 | 0.00 | 0.00 | 100 | 1011.0 |
| 20260505115530 | 46 | 26 | 0.9 | 2.6 | 0.00 | 0.00 | 0.00 | 100 | 1011.0 |
| 20260505115030 | 47 | 26 | 1.7 | 2.6 | 0.00 | 0.00 | 0.00 | 100 | 1011.0 |
| 20260505114931 | 47 | 26 | 1.7 | 1.7 | 0.00 | 0.00 | 0.00 | 100 | 1011.1 |
| 20260505114530 | 47 | 26 | 2.6 | 4.3 | 0.00 | 0.00 | 0.00 | 100 | 1010.9 |
| 20260505114030 | 46 | 26 | 1.7 | 4.3 | 0.00 | 0.00 | 0.00 | 100 | 1011.0 |
| 20260505113530 | 46 | 23 | 2.6 | 3.5 | 0.00 | 0.00 | 0.00 | 100 | 1010.9 |
| 20260505113131 | 46 | 0 | 2.6 | 4.3 | 0.00 | 0.00 | 0.00 | 100 | 1011.0 |
| 20260505113030 | 47 | 0 | 1.7 | 4.3 | 0.00 | 0.00 | 0.00 | 100 | 1011.0 |
| 20260505112530 | 47 | 342 | 2.6 | 2.6 | 0.00 | 0.00 | 0.00 | 100 | 1011.1 |
| 20260505112231 | 47 | 342 | 2.6 | 4.3 | 0.00 | 0.00 | 0.00 | 100 | 1011.0 |
| 20260505112030 | 47 | 342 | 3.5 | 4.3 | 0.00 | 0.00 | 0.00 | 100 | 1011.0 |
| 20260505111530 | 47 | 344 | 3.5 | 4.3 | 0.00 | 0.00 | 0.00 | 100 | 1011.1 |
| 20260505111331 | 47 | 355 | 3.5 | 5.2 | 0.00 | 0.00 | 0.00 | 100 | 1010.9 |
| 20260505111030 | 47 | 344 | 2.6 | 5.2 | 0.00 | 0.00 | 0.00 | 100 | 1011.0 |
| 20260505110530 | 47 | 325 | 3.5 | 3.5 | 0.00 | 0.00 | 0.00 | 100 | 1011.0 |
| 20260505110431 | 47 | 325 | 3.5 | 3.5 | 0.00 | 0.00 | 0.00 | 100 | 1011.0 |
| 20260505102030 | 47 | 22 | 0.9 | 1.7 | 0.00 | 0.00 | 0.00 | 100 | 1010.7 |
| 20260505101931 | 47 | 22 | 0.9 | 1.7 | 0.00 | 0.00 | 0.00 | 100 | 1010.6 |
| 20260505101530 | 47 | 22 | 0.9 | 1.7 | 0.00 | 0.00 | 0.00 | 100 | 1010.6 |
| 20260505101030 | 47 | 22 | 0.0 | 1.7 | 0.00 | 0.00 | 0.00 | 100 | 1010.5 |
| 20260505100530 | 48 | 22 | 0.0 | 1.7 | 0.00 | 0.00 | 0.00 | 100 | 1010.5 |
| 20260505100131 | 48 | 22 | 0.9 | 0.9 | 0.00 | 0.00 | 0.00 | 100 | 1010.6 |
| 20260505100030 | 48 | 22 | 0.9 | 0.0 | 0.00 | 0.00 | 0.00 | 100 | 1010.5 |
| 20260505095530 | 48 | 22 | 0.9 | 1.7 | 0.00 | 0.00 | 0.00 | 100 | 1010.6 |
| 20260505095231 | 48 | 22 | 0.9 | 2.6 | 0.00 | 0.00 | 0.00 | 99 | 1010.5 |
| 20260505095030 | 48 | 22 | 0.9 | 2.6 | 0.00 | 0.00 | 0.00 | 100 | 1010.5 |
| 20260505094530 | 48 | 44 | 0.9 | 1.7 | 0.00 | 0.00 | 0.00 | 99 | 1010.5 |
| 20260505094331 | 48 | 44 | 0.9 | 1.7 | 0.00 | 0.00 | 0.00 | 99 | 1010.5 |
| 20260505094030 | 48 | 44 | 1.7 | 0.9 | 0.00 | 0.00 | 0.00 | 99 | 1010.5 |
| 20260505093530 | 48 | 44 | 1.7 | 3.5 | 0.00 | 0.00 | 0.00 | 98 | 1010.5 |
| 20260505093431 | 48 | 44 | 0.9 | 3.5 | 0.00 | 0.00 | 0.00 | 99 | 1010.5 |
| 20260505093030 | 48 | 11 | 0.9 | 1.7 | 0.00 | 0.00 | 0.00 | 99 | 1010.5 |
| 20260505092530 | 48 | 11 | 0.9 | 2.6 | 0.00 | 0.00 | 0.00 | 99 | 1010.5 |